Electra, TX (76360)

10:45 PM CDT on August 29, 2014 (GMT -0500)
Electra | Change Station
CLOSE
Current Station
Personal Weather Station
Location: Electra, TX
Elevation: 1227 ft
Nearby Weather Stations

Elev 1227 ft 34.03 °N, 98.91 °W | Updated 1 second ago

Clear
Clear
77.0 °F
Feels Like 78 °F
N
2.9
Wind Variable Wind from SW
Gusts 6.0 mph

Today
High -- | Low -- °F
--% Chance of Precip.
Yesterday
High -- | Low -- °F
Precip. -- in
7:07 AM 8:05 PM
Waxing Crescent, 18% visible
Pressure 29.93 in
Visibility 10.0 miles
Clouds Clear
Heat Index 78 °F
Dew Point 71 °F
Humidity 83%
Rainfall 0.49 in
Snow Depth Not available.
UV 0 out of 12
Pollen 8.50 out of 12
Air Quality Not available.
Flu Activity Not available.
METAR KF05 300335Z AUTO 17006KT 10SM CLR 25/21 A2993 RMK AO1 T02540213

More Conditions Fewer Conditions

Pressure 29.93 in
Visibility 10.0 miles
Clouds Clear
Heat Index 78 °F
Dew Point 71 °F
Humidity 83%
Rainfall 0.49 in
Snow Depth Not available.
UV 0 out of 12
Pollen 8.50 out of 12
Air Quality Not available.
Flu Activity Not available.
METAR KF05 300335Z AUTO 17006KT 10SM CLR 25/21 A2993 RMK AO1 T02540213

More Conditions Fewer Conditions

10-Day Weather Forecast

Almanac

Astronomy

Aug. 29, 2014 Rise Set
Actual Time 7:07 AM CDT 8:05 PM CDT
Civil Twilight 6:41 AM CDT 8:30 PM CDT
Nautical Twilight 6:11 AM CDT 9:01 PM CDT
Astronomical Twilight 5:39 AM CDT 9:32 PM CDT
Moon 10:45 AM CDT (8/29) 10:17 PM CDT (8/29)
Length of Visible Light 13h 49m
Length of Day
12h 58m
Tomorrow will be 2m 1s shorter.
Waxing Crescent, 18% of the Moon is Illuminated
Today
Waxing Crescent
Sep 2
First Quarter
Sep 8
Full
Sep 15
Last Quarter
Sep 24
New

Today's Extremes

State Highs State Lows

Community

WunderPhotos

Upload Photos

1,748,437 photos uploaded!

Nearby

Snow Depth

Station Depth Elevation
No new snow has been reported.

Earthquake Activity

City Distance Mag. Time & Date
Guthrie, Oklahoma 150 miles 3.2 10:39 AM CDT
2014-08-29
Minimum magnitude displayed is 2.5.

Coastal Water Temperatures

Place Temperature
No Stations Reporting

Nearby Weather Stations